sensor_id;sensor_type;location;lat;lon;timestamp;pressure;altitude;pressure_sealevel;temperature;humidity
9307;BME280;4691;47.612;7.610;2022-10-20T00:01:20;99356.94;;;16.28;100.00
9307;BME280;4691;47.612;7.610;2022-10-20T00:03:47;99367.00;;;16.26;100.00
9307;BME280;4691;47.612;7.610;2022-10-20T00:06:17;99354.97;;;16.30;100.00
9307;BME280;4691;47.612;7.610;2022-10-20T00:08:43;99340.44;;;16.31;100.00
9307;BME280;4691;47.612;7.610;2022-10-20T00:11:10;99346.44;;;16.25;100.00
9307;BME280;4691;47.612;7.610;2022-10-20T00:13:37;99355.38;;;16.35;100.00
9307;BME280;4691;47.612;7.610;2022-10-20T00:16:03;99323.72;;;16.37;100.00
9307;BME280;4691;47.612;7.610;2022-10-20T00:18:29;99328.38;;;16.35;100.00
9307;BME280;4691;47.612;7.610;2022-10-20T00:20:54;99308.06;;;16.31;100.00
9307;BME280;4691;47.612;7.610;2022-10-20T00:23:20;99306.81;;;16.35;100.00
9307;BME280;4691;47.612;7.610;2022-10-20T00:25:45;99305.09;;;16.34;100.00
9307;BME280;4691;47.612;7.610;2022-10-20T00:28:11;99305.25;;;16.32;100.00
9307;BME280;4691;47.612;7.610;2022-10-20T00:30:37;99295.28;;;16.33;100.00
9307;BME280;4691;47.612;7.610;2022-10-20T00:33:03;99297.56;;;16.28;100.00
9307;BME280;4691;47.612;7.610;2022-10-20T00:35:30;99307.81;;;16.34;100.00
9307;BME280;4691;47.612;7.610;2022-10-20T00:37:56;99283.94;;;16.39;100.00
9307;BME280;4691;47.612;7.610;2022-10-20T00:40:21;99289.91;;;16.33;100.00
9307;BME280;4691;47.612;7.610;2022-10-20T00:42:47;99273.38;;;16.46;100.00
9307;BME280;4691;47.612;7.610;2022-10-20T00:45:19;99254.25;;;16.39;100.00
9307;BME280;4691;47.612;7.610;2022-10-20T00:47:48;99275.69;;;16.31;100.00
9307;BME280;4691;47.612;7.610;2022-10-20T00:52:48;99293.59;;;16.22;100.00
9307;BME280;4691;47.612;7.610;2022-10-20T00:55:39;99313.34;;;16.13;100.00
9307;BME280;4691;47.612;7.610;2022-10-20T00:58:03;99342.03;;;16.14;100.00
9307;BME280;4691;47.612;7.610;2022-10-20T01:00:29;99352.13;;;16.12;100.00
9307;BME280;4691;47.612;7.610;2022-10-20T01:02:57;99372.13;;;16.09;100.00
9307;BME280;4691;47.612;7.610;2022-10-20T01:05:23;99352.41;;;16.19;100.00
9307;BME280;4691;47.612;7.610;2022-10-20T01:07:49;99370.88;;;16.04;100.00
9307;BME280;4691;47.612;7.610;2022-10-20T01:10:15;99338.03;;;16.28;100.00
9307;BME280;4691;47.612;7.610;2022-10-20T01:12:56;99320.16;;;16.27;100.00
9307;BME280;4691;47.612;7.610;2022-10-20T01:15:49;99296.19;;;16.24;100.00
9307;BME280;4691;47.612;7.610;2022-10-20T01:18:29;99325.28;;;16.10;100.00
9307;BME280;4691;47.612;7.610;2022-10-20T01:24:04;99355.09;;;16.09;100.00
9307;BME280;4691;47.612;7.610;2022-10-20T01:37:44;99404.38;;;16.01;100.00
9307;BME280;4691;47.612;7.610;2022-10-20T01:42:47;99413.72;;;15.97;100.00
9307;BME280;4691;47.612;7.610;2022-10-20T01:45:16;99404.50;;;16.09;100.00
9307;BME280;4691;47.612;7.610;2022-10-20T01:47:44;99377.84;;;16.16;100.00
9307;BME280;4691;47.612;7.610;2022-10-20T01:50:11;99380.53;;;16.06;100.00
9307;BME280;4691;47.612;7.610;2022-10-20T01:52:37;99389.72;;;15.94;100.00
9307;BME280;4691;47.612;7.610;2022-10-20T01:55:10;99397.25;;;16.00;100.00
9307;BME280;4691;47.612;7.610;2022-10-20T02:00:22;99371.44;;;16.07;100.00
9307;BME280;4691;47.612;7.610;2022-10-20T02:03:03;99374.28;;;16.06;100.00
9307;BME280;4691;47.612;7.610;2022-10-20T02:05:52;99363.50;;;16.06;100.00
9307;BME280;4691;47.612;7.610;2022-10-20T02:08:36;99362.34;;;15.99;100.00
9307;BME280;4691;47.612;7.610;2022-10-20T02:11:05;99354.53;;;16.05;100.00
9307;BME280;4691;47.612;7.610;2022-10-20T02:13:35;99369.13;;;16.03;100.00
9307;BME280;4691;47.612;7.610;2022-10-20T02:19:36;99311.50;;;15.94;90.67
9307;BME280;4691;47.612;7.610;2022-10-20T02:22:04;99317.75;;;15.95;96.44
9307;BME280;4691;47.612;7.610;2022-10-20T02:24:33;99322.00;;;15.97;100.00
9307;BME280;4691;47.612;7.610;2022-10-20T02:27:03;99307.56;;;15.98;100.00
9307;BME280;4691;47.612;7.610;2022-10-20T02:29:35;99316.31;;;16.00;100.00
9307;BME280;4691;47.612;7.610;2022-10-20T02:32:02;99288.81;;;16.06;100.00
9307;BME280;4691;47.612;7.610;2022-10-20T02:34:28;99278.16;;;16.05;100.00
9307;BME280;4691;47.612;7.610;2022-10-20T02:36:57;99298.47;;;15.99;100.00
9307;BME280;4691;47.612;7.610;2022-10-20T02:39:23;99306.41;;;16.01;100.00
9307;BME280;4691;47.612;7.610;2022-10-20T02:41:48;99309.81;;;15.93;100.00
9307;BME280;4691;47.612;7.610;2022-10-20T02:44:14;99311.34;;;16.05;100.00
9307;BME280;4691;47.612;7.610;2022-10-20T02:46:39;99306.41;;;16.01;100.00
9307;BME280;4691;47.612;7.610;2022-10-20T02:49:04;99297.44;;;16.00;100.00
9307;BME280;4691;47.612;7.610;2022-10-20T02:51:30;99286.53;;;16.02;100.00
9307;BME280;4691;47.612;7.610;2022-10-20T02:53:55;99281.13;;;16.02;100.00
9307;BME280;4691;47.612;7.610;2022-10-20T02:56:20;99285.97;;;15.98;100.00
9307;BME280;4691;47.612;7.610;2022-10-20T02:58:47;99271.78;;;15.96;100.00
9307;BME280;4691;47.612;7.610;2022-10-20T03:01:12;99295.91;;;15.88;100.00
9307;BME280;4691;47.612;7.610;2022-10-20T03:03:37;99310.09;;;15.90;100.00
9307;BME280;4691;47.612;7.610;2022-10-20T03:06:14;99294.31;;;15.95;100.00
9307;BME280;4691;47.612;7.610;2022-10-20T03:08:40;99292.22;;;15.89;100.00
9307;BME280;4691;47.612;7.610;2022-10-20T03:11:06;99303.00;;;15.89;100.00
9307;BME280;4691;47.612;7.610;2022-10-20T03:13:32;99321.59;;;15.92;100.00
9307;BME280;4691;47.612;7.610;2022-10-20T03:15:57;99297.91;;;15.96;100.00
9307;BME280;4691;47.612;7.610;2022-10-20T03:18:23;99317.91;;;15.93;100.00
9307;BME280;4691;47.612;7.610;2022-10-20T03:20:51;99318.88;;;15.82;100.00
9307;BME280;4691;47.612;7.610;2022-10-20T03:23:17;99340.75;;;15.89;100.00
9307;BME280;4691;47.612;7.610;2022-10-20T03:25:42;99326.56;;;15.87;100.00
9307;BME280;4691;47.612;7.610;2022-10-20T03:28:08;99325.41;;;15.89;100.00
9307;BME280;4691;47.612;7.610;2022-10-20T03:30:33;99324.16;;;15.84;100.00
9307;BME280;4691;47.612;7.610;2022-10-20T03:32:58;99342.72;;;15.87;100.00
9307;BME280;4691;47.612;7.610;2022-10-20T03:35:24;99328.53;;;15.85;100.00
9307;BME280;4691;47.612;7.610;2022-10-20T03:37:49;99340.59;;;15.81;100.00
9307;BME280;4691;47.612;7.610;2022-10-20T03:40:14;99331.66;;;15.90;100.00
9307;BME280;4691;47.612;7.610;2022-10-20T03:42:40;99313.78;;;15.89;100.00
9307;BME280;4691;47.612;7.610;2022-10-20T03:45:05;99326.84;;;15.94;100.00
9307;BME280;4691;47.612;7.610;2022-10-20T03:47:31;99305.56;;;15.91;100.00
9307;BME280;4691;47.612;7.610;2022-10-20T03:49:56;99322.88;;;15.88;100.00
9307;BME280;4691;47.612;7.610;2022-10-20T03:52:21;99311.81;;;15.91;100.00
9307;BME280;4691;47.612;7.610;2022-10-20T03:54:47;99319.75;;;15.83;100.00
9307;BME280;4691;47.612;7.610;2022-10-20T03:57:12;99333.50;;;15.80;100.00
9307;BME280;4691;47.612;7.610;2022-10-20T03:59:37;99356.34;;;15.76;100.00
9307;BME280;4691;47.612;7.610;2022-10-20T04:02:02;99369.13;;;15.74;100.00
9307;BME280;4691;47.612;7.610;2022-10-20T04:04:28;99381.06;;;15.81;100.00
9307;BME280;4691;47.612;7.610;2022-10-20T04:06:53;99360.03;;;15.75;100.00
9307;BME280;4691;47.612;7.610;2022-10-20T04:09:18;99372.53;;;15.76;100.00
9307;BME280;4691;47.612;7.610;2022-10-20T04:11:44;99372.81;;;15.73;100.00
9307;BME280;4691;47.612;7.610;2022-10-20T04:14:10;99383.03;;;15.79;100.00
9307;BME280;4691;47.612;7.610;2022-10-20T04:16:35;99388.56;;;15.77;100.00
9307;BME280;4691;47.612;7.610;2022-10-20T04:19:00;99361.06;;;15.83;100.00
9307;BME280;4691;47.612;7.610;2022-10-20T04:21:25;99361.06;;;15.83;100.00
9307;BME280;4691;47.612;7.610;2022-10-20T04:23:51;99345.28;;;15.79;100.00
9307;BME280;4691;47.612;7.610;2022-10-20T04:26:16;99334.94;;;15.84;100.00
9307;BME280;4691;47.612;7.610;2022-10-20T04:28:42;99331.94;;;15.87;100.00
9307;BME280;4691;47.612;7.610;2022-10-20T04:31:07;99308.81;;;15.84;100.00
9307;BME280;4691;47.612;7.610;2022-10-20T04:33:34;99310.66;;;15.84;100.00
9307;BME280;4691;47.612;7.610;2022-10-20T04:36:05;99304.25;;;15.85;100.00
9307;BME280;4691;47.612;7.610;2022-10-20T04:38:31;99315.50;;;15.80;100.00
9307;BME280;4691;47.612;7.610;2022-10-20T04:40:58;99315.50;;;15.80;100.00
9307;BME280;4691;47.612;7.610;2022-10-20T04:43:24;99323.16;;;15.75;100.00
9307;BME280;4691;47.612;7.610;2022-10-20T04:45:49;99341.25;;;15.63;100.00
9307;BME280;4691;47.612;7.610;2022-10-20T04:48:15;99350.66;;;15.69;100.00
9307;BME280;4691;47.612;7.610;2022-10-20T04:50:41;99353.09;;;15.72;100.00
9307;BME280;4691;47.612;7.610;2022-10-20T04:53:07;99358.88;;;15.67;100.00
9307;BME280;4691;47.612;7.610;2022-10-20T04:55:34;99362.97;;;15.62;100.00
9307;BME280;4691;47.612;7.610;2022-10-20T04:57:59;99388.63;;;15.56;100.00
9307;BME280;4691;47.612;7.610;2022-10-20T05:00:24;99379.16;;;15.62;100.00
9307;BME280;4691;47.612;7.610;2022-10-20T05:02:50;99373.31;;;15.66;100.00
9307;BME280;4691;47.612;7.610;2022-10-20T05:05:15;99353.75;;;15.64;100.00
9307;BME280;4691;47.612;7.610;2022-10-20T05:07:40;99346.13;;;15.70;100.00
9307;BME280;4691;47.612;7.610;2022-10-20T05:10:06;99339.75;;;15.71;100.00
9307;BME280;4691;47.612;7.610;2022-10-20T05:12:31;99341.13;;;15.65;100.00
9307;BME280;4691;47.612;7.610;2022-10-20T05:14:57;99341.97;;;15.65;100.00
9307;BME280;4691;47.612;7.610;2022-10-20T05:17:22;99331.06;;;15.67;100.00
9307;BME280;4691;47.612;7.610;2022-10-20T05:19:47;99331.19;;;15.65;100.00
9307;BME280;4691;47.612;7.610;2022-10-20T05:22:13;99335.59;;;15.57;100.00
9307;BME280;4691;47.612;7.610;2022-10-20T05:24:38;99355.03;;;15.60;100.00
9307;BME280;4691;47.612;7.610;2022-10-20T05:27:03;99359.69;;;15.58;100.00
9307;BME280;4691;47.612;7.610;2022-10-20T05:29:29;99370.78;;;15.65;100.00
9307;BME280;4691;47.612;7.610;2022-10-20T05:31:54;99374.72;;;15.61;100.00
9307;BME280;4691;47.612;7.610;2022-10-20T05:34:19;99363.66;;;15.54;100.00
9307;BME280;4691;47.612;7.610;2022-10-20T05:36:45;99371.19;;;15.60;100.00
9307;BME280;4691;47.612;7.610;2022-10-20T05:39:10;99362.25;;;15.60;100.00
9307;BME280;4691;47.612;7.610;2022-10-20T05:41:35;99364.22;;;15.58;100.00
9307;BME280;4691;47.612;7.610;2022-10-20T05:44:02;99366.38;;;15.54;100.00
9307;BME280;4691;47.612;7.610;2022-10-20T05:46:33;99393.72;;;15.50;100.00
9307;BME280;4691;47.612;7.610;2022-10-20T05:49:01;99394.97;;;15.45;100.00
9307;BME280;4691;47.612;7.610;2022-10-20T05:51:32;99416.84;;;15.52;100.00
9307;BME280;4691;47.612;7.610;2022-10-20T05:53:58;99414.44;;;15.49;100.00
9307;BME280;4691;47.612;7.610;2022-10-20T05:56:25;99422.97;;;15.54;100.00
9307;BME280;4691;47.612;7.610;2022-10-20T05:58:51;99453.06;;;15.59;100.00
9307;BME280;4691;47.612;7.610;2022-10-20T06:01:19;99415.31;;;15.59;100.00
9307;BME280;4691;47.612;7.610;2022-10-20T06:06:18;99413.91;;;15.65;100.00
9307;BME280;4691;47.612;7.610;2022-10-20T06:08:50;99393.47;;;15.62;100.00
9307;BME280;4691;47.612;7.610;2022-10-20T06:11:16;99405.94;;;15.63;100.00
9307;BME280;4691;47.612;7.610;2022-10-20T06:13:42;99422.41;;;15.60;100.00
9307;BME280;4691;47.612;7.610;2022-10-20T06:16:11;99433.91;;;15.62;100.00
9307;BME280;4691;47.612;7.610;2022-10-20T06:18:37;99428.38;;;15.64;100.00
9307;BME280;4691;47.612;7.610;2022-10-20T06:21:09;99447.13;;;15.65;100.00
9307;BME280;4691;47.612;7.610;2022-10-20T06:23:34;99440.72;;;15.66;100.00
9307;BME280;4691;47.612;7.610;2022-10-20T06:26:05;99431.66;;;15.67;100.00
9307;BME280;4691;47.612;7.610;2022-10-20T06:28:32;99445.91;;;15.70;100.00
9307;BME280;4691;47.612;7.610;2022-10-20T06:30:58;99432.41;;;15.70;100.00
9307;BME280;4691;47.612;7.610;2022-10-20T06:33:24;99429.28;;;15.74;100.00
9307;BME280;4691;47.612;7.610;2022-10-20T06:35:50;99431.84;;;15.76;100.00
9307;BME280;4691;47.612;7.610;2022-10-20T06:38:15;99420.78;;;15.79;100.00
9307;BME280;4691;47.612;7.610;2022-10-20T06:40:40;99427.19;;;15.78;100.00
9307;BME280;4691;47.612;7.610;2022-10-20T06:43:06;99436.84;;;15.80;100.00
9307;BME280;4691;47.612;7.610;2022-10-20T06:45:31;99447.19;;;15.75;100.00
9307;BME280;4691;47.612;7.610;2022-10-20T06:47:56;99472.84;;;15.70;100.00
9307;BME280;4691;47.612;7.610;2022-10-20T06:50:22;99497.69;;;15.73;100.00
9307;BME280;4691;47.612;7.610;2022-10-20T06:52:47;99513.03;;;15.73;100.00
9307;BME280;4691;47.612;7.610;2022-10-20T06:55:12;99501.69;;;15.79;100.00
9307;BME280;4691;47.612;7.610;2022-10-20T06:57:38;99500.22;;;15.75;100.00
9307;BME280;4691;47.612;7.610;2022-10-20T07:00:04;99492.00;;;15.76;100.00
9307;BME280;4691;47.612;7.610;2022-10-20T07:02:29;99504.50;;;15.77;100.00
9307;BME280;4691;47.612;7.610;2022-10-20T07:04:55;99498.97;;;15.79;100.00
9307;BME280;4691;47.612;7.610;2022-10-20T07:07:20;99498.41;;;15.75;100.00
9307;BME280;4691;47.612;7.610;2022-10-20T07:09:45;99525.81;;;15.80;100.00
9307;BME280;4691;47.612;7.610;2022-10-20T07:12:11;99515.88;;;15.81;100.00
9307;BME280;4691;47.612;7.610;2022-10-20T07:14:36;99524.69;;;15.83;100.00
9307;BME280;4691;47.612;7.610;2022-10-20T07:17:02;99515.03;;;15.80;100.00
9307;BME280;4691;47.612;7.610;2022-10-20T07:19:29;99522.44;;;15.88;100.00
9307;BME280;4691;47.612;7.610;2022-10-20T07:21:54;99514.34;;;15.88;100.00
9307;BME280;4691;47.612;7.610;2022-10-20T07:24:20;99498.34;;;15.96;100.00
9307;BME280;4691;47.612;7.610;2022-10-20T07:26:45;99503.72;;;15.96;100.00
9307;BME280;4691;47.612;7.610;2022-10-20T07:29:11;99491.94;;;15.97;100.00
9307;BME280;4691;47.612;7.610;2022-10-20T07:31:44;99486.41;;;15.99;100.00
9307;BME280;4691;47.612;7.610;2022-10-20T07:34:11;99478.16;;;16.00;100.00
9307;BME280;4691;47.612;7.610;2022-10-20T07:36:36;99480.19;;;16.08;100.00
9307;BME280;4691;47.612;7.610;2022-10-20T07:39:05;99483.31;;;16.13;100.00
9307;BME280;4691;47.612;7.610;2022-10-20T07:41:31;99482.63;;;16.21;100.00
9307;BME280;4691;47.612;7.610;2022-10-20T07:43:56;99459.47;;;16.28;100.00
9307;BME280;4691;47.612;7.610;2022-10-20T07:46:22;99447.56;;;16.40;100.00
9307;BME280;4691;47.612;7.610;2022-10-20T07:48:48;99436.47;;;16.43;100.00
9307;BME280;4691;47.612;7.610;2022-10-20T07:54:03;99360.31;;;16.59;100.00
9307;BME280;4691;47.612;7.610;2022-10-20T07:56:32;99375.34;;;16.71;100.00
9307;BME280;4691;47.612;7.610;2022-10-20T07:58:58;99350.63;;;16.76;100.00
9307;BME280;4691;47.612;7.610;2022-10-20T08:01:24;99331.00;;;16.74;100.00
9307;BME280;4691;47.612;7.610;2022-10-20T08:03:49;99286.34;;;16.89;100.00
9307;BME280;4691;47.612;7.610;2022-10-20T08:06:14;99272.28;;;16.95;100.00
9307;BME280;4691;47.612;7.610;2022-10-20T08:08:40;99274.84;;;17.15;100.00
9307;BME280;4691;47.612;7.610;2022-10-20T08:11:05;99234.28;;;16.97;100.00
9307;BME280;4691;47.612;7.610;2022-10-20T08:13:31;99250.66;;;16.95;100.00
9307;BME280;4691;47.612;7.610;2022-10-20T08:15:56;99251.59;;;17.04;100.00
9307;BME280;4691;47.612;7.610;2022-10-20T08:18:23;99221.84;;;16.86;100.00
9307;BME280;4691;47.612;7.610;2022-10-20T08:20:48;99236.00;;;16.98;100.00
9307;BME280;4691;47.612;7.610;2022-10-20T08:23:14;99221.59;;;17.25;100.00
9307;BME280;4691;47.612;7.610;2022-10-20T08:25:40;99221.22;;;17.38;100.00
9307;BME280;4691;47.612;7.610;2022-10-20T08:28:06;99230.41;;;17.27;100.00
9307;BME280;4691;47.612;7.610;2022-10-20T08:30:32;99202.59;;;17.17;100.00
9307;BME280;4691;47.612;7.610;2022-10-20T08:32:57;99159.00;;;17.30;100.00
9307;BME280;4691;47.612;7.610;2022-10-20T08:35:22;99160.72;;;17.75;100.00
9307;BME280;4691;47.612;7.610;2022-10-20T08:37:48;99083.78;;;17.69;100.00
9307;BME280;4691;47.612;7.610;2022-10-20T08:40:24;99029.53;;;17.71;100.00
9307;BME280;4691;47.612;7.610;2022-10-20T08:42:50;99009.78;;;17.70;100.00
9307;BME280;4691;47.612;7.610;2022-10-20T08:45:21;99003.47;;;17.70;100.00
9307;BME280;4691;47.612;7.610;2022-10-20T08:47:49;98980.47;;;17.57;100.00
9307;BME280;4691;47.612;7.610;2022-10-20T08:50:17;98947.13;;;17.57;100.00
9307;BME280;4691;47.612;7.610;2022-10-20T08:52:45;99055.78;;;17.52;100.00
9307;BME280;4691;47.612;7.610;2022-10-20T08:55:29;99090.75;;;17.54;100.00
9307;BME280;4691;47.612;7.610;2022-10-20T08:58:04;99102.97;;;17.58;100.00
9307;BME280;4691;47.612;7.610;2022-10-20T09:00:30;99108.00;;;17.53;100.00
9307;BME280;4691;47.612;7.610;2022-10-20T09:03:01;99122.50;;;17.52;100.00
9307;BME280;4691;47.612;7.610;2022-10-20T09:05:34;99160.34;;;17.34;100.00
9307;BME280;4691;47.612;7.610;2022-10-20T09:07:59;99178.50;;;17.41;100.00
9307;BME280;4691;47.612;7.610;2022-10-20T09:10:31;99159.97;;;17.47;100.00
9307;BME280;4691;47.612;7.610;2022-10-20T09:12:58;99145.91;;;17.61;100.00
9307;BME280;4691;47.612;7.610;2022-10-20T09:15:24;99129.78;;;17.95;100.00
9307;BME280;4691;47.612;7.610;2022-10-20T09:17:58;99105.19;;;18.06;100.00
9307;BME280;4691;47.612;7.610;2022-10-20T09:20:31;99090.22;;;18.28;100.00
9307;BME280;4691;47.612;7.610;2022-10-20T09:22:58;99025.53;;;18.09;100.00
9307;BME280;4691;47.612;7.610;2022-10-20T09:25:24;99020.13;;;18.09;100.00
9307;BME280;4691;47.612;7.610;2022-10-20T09:27:52;99036.25;;;17.93;100.00
9307;BME280;4691;47.612;7.610;2022-10-20T09:32:45;99164.38;;;17.83;100.00
9307;BME280;4691;47.612;7.610;2022-10-20T09:35:22;99302.34;;;17.83;100.00
9307;BME280;4691;47.612;7.610;2022-10-20T09:40:21;99374.16;;;17.68;100.00
9307;BME280;4691;47.612;7.610;2022-10-20T09:42:52;99386.25;;;17.36;100.00
9307;BME280;4691;47.612;7.610;2022-10-20T09:45:20;99415.88;;;17.28;100.00
9307;BME280;4691;47.612;7.610;2022-10-20T09:47:52;99476.50;;;17.26;100.00
9307;BME280;4691;47.612;7.610;2022-10-20T09:50:25;99536.13;;;17.24;100.00
9307;BME280;4691;47.612;7.610;2022-10-20T09:52:51;99530.97;;;17.31;100.00
9307;BME280;4691;47.612;7.610;2022-10-20T09:55:23;99531.81;;;17.31;100.00
9307;BME280;4691;47.612;7.610;2022-10-20T09:57:50;99518.44;;;17.39;100.00
9307;BME280;4691;47.612;7.610;2022-10-20T10:00:27;99473.34;;;17.40;100.00
9307;BME280;4691;47.612;7.610;2022-10-20T10:03:18;99463.00;;;17.63;100.00
9307;BME280;4691;47.612;7.610;2022-10-20T10:05:48;99476.91;;;17.68;100.00
9307;BME280;4691;47.612;7.610;2022-10-20T10:08:14;99442.16;;;17.73;100.00
9307;BME280;4691;47.612;7.610;2022-10-20T10:10:40;99449.16;;;18.03;100.00
9307;BME280;4691;47.612;7.610;2022-10-20T10:13:20;99482.47;;;18.04;100.00
9307;BME280;4691;47.612;7.610;2022-10-20T10:15:45;99481.81;;;18.20;100.00
9307;BME280;4691;47.612;7.610;2022-10-20T10:18:20;99419.41;;;18.21;100.00
9307;BME280;4691;47.612;7.610;2022-10-20T10:20:47;99392.78;;;17.99;100.00
9307;BME280;4691;47.612;7.610;2022-10-20T10:23:26;99350.00;;;18.20;100.00
9307;BME280;4691;47.612;7.610;2022-10-20T10:25:53;99328.13;;;18.32;100.00
9307;BME280;4691;47.612;7.610;2022-10-20T10:31:18;99194.88;;;18.46;100.00
9307;BME280;4691;47.612;7.610;2022-10-20T10:33:44;99152.78;;;18.60;100.00
9307;BME280;4691;47.612;7.610;2022-10-20T10:36:14;99128.47;;;18.68;100.00
9307;BME280;4691;47.612;7.610;2022-10-20T10:38:42;99150.78;;;18.62;100.00
9307;BME280;4691;47.612;7.610;2022-10-20T10:41:26;99125.69;;;18.86;100.00
9307;BME280;4691;47.612;7.610;2022-10-20T10:46:25;99031.03;;;18.42;100.00
9307;BME280;4691;47.612;7.610;2022-10-20T10:57:10;99099.44;;;18.52;100.00
9307;BME280;4691;47.612;7.610;2022-10-20T10:59:39;99020.97;;;18.68;100.00
9307;BME280;4691;47.612;7.610;2022-10-20T11:05:19;99043.28;;;18.62;100.00
9307;BME280;4691;47.612;7.610;2022-10-20T11:13:23;99076.81;;;18.69;100.00
9307;BME280;4691;47.612;7.610;2022-10-20T11:16:17;98987.09;;;18.64;100.00
9307;BME280;4691;47.612;7.610;2022-10-20T11:21:57;98911.63;;;18.78;100.00
9307;BME280;4691;47.612;7.610;2022-10-20T11:24:36;98933.16;;;19.04;100.00
9307;BME280;4691;47.612;7.610;2022-10-20T11:27:10;98914.50;;;19.09;100.00
9307;BME280;4691;47.612;7.610;2022-10-20T11:29:50;98879.47;;;18.99;100.00
9307;BME280;4691;47.612;7.610;2022-10-20T11:34:57;98947.19;;;19.15;100.00
9307;BME280;4691;47.612;7.610;2022-10-20T11:37:27;98908.03;;;19.18;100.00
9307;BME280;4691;47.612;7.610;2022-10-20T11:40:12;98912.13;;;19.22;100.00
9307;BME280;4691;47.612;7.610;2022-10-20T11:48:17;98711.78;;;19.67;100.00
9307;BME280;4691;47.612;7.610;2022-10-20T11:50:56;98564.94;;;19.70;100.00
9307;BME280;4691;47.612;7.610;2022-10-20T11:59:45;98722.50;;;19.83;100.00
9307;BME280;4691;47.612;7.610;2022-10-20T12:08:28;98924.91;;;19.53;100.00
9307;BME280;4691;47.612;7.610;2022-10-20T12:19:29;98892.31;;;19.05;100.00
9307;BME280;4691;47.612;7.610;2022-10-20T12:22:05;98930.94;;;18.99;100.00
9307;BME280;4691;47.612;7.610;2022-10-20T12:24:36;98936.03;;;19.02;100.00
9307;BME280;4691;47.612;7.610;2022-10-20T12:37:59;98812.69;;;19.14;100.00
9307;BME280;4691;47.612;7.610;2022-10-20T12:40:33;98866.06;;;19.06;100.00
9307;BME280;4691;47.612;7.610;2022-10-20T12:43:05;98867.56;;;19.08;100.00
9307;BME280;4691;47.612;7.610;2022-10-20T12:45:34;98850.97;;;19.03;100.00
9307;BME280;4691;47.612;7.610;2022-10-20T12:48:04;98814.16;;;19.25;100.00
9307;BME280;4691;47.612;7.610;2022-10-20T12:53:11;98683.31;;;19.40;100.00
9307;BME280;4691;47.612;7.610;2022-10-20T12:55:38;98723.84;;;19.33;100.00
9307;BME280;4691;47.612;7.610;2022-10-20T12:58:24;98683.91;;;19.19;100.00
9307;BME280;4691;47.612;7.610;2022-10-20T13:03:36;98679.84;;;19.23;100.00
9307;BME280;4691;47.612;7.610;2022-10-20T13:17:09;98809.97;;;19.14;100.00
9307;BME280;4691;47.612;7.610;2022-10-20T13:22:41;98814.38;;;19.15;100.00
9307;BME280;4691;47.612;7.610;2022-10-20T13:25:25;98737.16;;;19.11;100.00
9307;BME280;4691;47.612;7.610;2022-10-20T13:28:24;98735.09;;;19.22;100.00
9307;BME280;4691;47.612;7.610;2022-10-20T13:33:49;98606.91;;;19.36;100.00
9307;BME280;4691;47.612;7.610;2022-10-20T13:36:19;98670.72;;;19.15;100.00
9307;BME280;4691;47.612;7.610;2022-10-20T13:41:44;98684.94;;;19.18;100.00
9307;BME280;4691;47.612;7.610;2022-10-20T13:44:48;98655.28;;;19.24;100.00
9307;BME280;4691;47.612;7.610;2022-10-20T13:47:45;98639.06;;;19.39;100.00
9307;BME280;4691;47.612;7.610;2022-10-20T13:52:45;98656.22;;;19.31;100.00
9307;BME280;4691;47.612;7.610;2022-10-20T13:55:18;98627.88;;;19.19;100.00
9307;BME280;4691;47.612;7.610;2022-10-20T13:57:52;98667.00;;;19.17;100.00
9307;BME280;4691;47.612;7.610;2022-10-20T14:00:26;98628.34;;;19.23;100.00
9307;BME280;4691;47.612;7.610;2022-10-20T14:05:23;98681.28;;;19.33;100.00
9307;BME280;4691;47.612;7.610;2022-10-20T14:07:49;98720.53;;;19.14;100.00
9307;BME280;4691;47.612;7.610;2022-10-20T14:13:29;98734.47;;;19.03;100.00
9307;BME280;4691;47.612;7.610;2022-10-20T14:15:59;98855.03;;;19.15;100.00
9307;BME280;4691;47.612;7.610;2022-10-20T14:18:28;98891.59;;;19.28;100.00
9307;BME280;4691;47.612;7.610;2022-10-20T14:23:26;98793.16;;;19.27;100.00
9307;BME280;4691;47.612;7.610;2022-10-20T14:25:52;98772.28;;;19.36;100.00
9307;BME280;4691;47.612;7.610;2022-10-20T14:28:19;98795.00;;;19.35;100.00
9307;BME280;4691;47.612;7.610;2022-10-20T14:30:49;98822.78;;;19.29;100.00
9307;BME280;4691;47.612;7.610;2022-10-20T14:33:15;98828.59;;;19.18;100.00
9307;BME280;4691;47.612;7.610;2022-10-20T14:35:43;98841.50;;;19.07;100.00
9307;BME280;4691;47.612;7.610;2022-10-20T14:38:16;98797.78;;;19.10;100.00
9307;BME280;4691;47.612;7.610;2022-10-20T14:40:52;98859.81;;;18.97;100.00
9307;BME280;4691;47.612;7.610;2022-10-20T14:43:19;98934.84;;;18.88;100.00
9307;BME280;4691;47.612;7.610;2022-10-20T14:45:58;98919.44;;;18.89;100.00
9307;BME280;4691;47.612;7.610;2022-10-20T14:48:45;98897.75;;;18.89;100.00
9307;BME280;4691;47.612;7.610;2022-10-20T14:51:41;99044.22;;;18.96;100.00
9307;BME280;4691;47.612;7.610;2022-10-20T14:54:37;99046.25;;;18.85;100.00
9307;BME280;4691;47.612;7.610;2022-10-20T14:59:34;99111.81;;;18.89;100.00
9307;BME280;4691;47.612;7.610;2022-10-20T15:04:43;99029.84;;;19.03;100.00
9307;BME280;4691;47.612;7.610;2022-10-20T15:07:31;98908.91;;;19.10;100.00
9307;BME280;4691;47.612;7.610;2022-10-20T15:10:05;98858.59;;;19.08;100.00
9307;BME280;4691;47.612;7.610;2022-10-20T15:12:37;98892.97;;;19.15;100.00
9307;BME280;4691;47.612;7.610;2022-10-20T15:17:45;98877.06;;;19.12;100.00
9307;BME280;4691;47.612;7.610;2022-10-20T15:25:25;98933.34;;;18.86;100.00
9307;BME280;4691;47.612;7.610;2022-10-20T15:27:51;98933.81;;;18.73;100.00
9307;BME280;4691;47.612;7.610;2022-10-20T15:30:19;98916.69;;;18.72;100.00
9307;BME280;4691;47.612;7.610;2022-10-20T15:32:46;98904.38;;;18.78;100.00
9307;BME280;4691;47.612;7.610;2022-10-20T15:35:16;98892.03;;;18.76;100.00
9307;BME280;4691;47.612;7.610;2022-10-20T15:37:43;98849.84;;;18.89;100.00
9307;BME280;4691;47.612;7.610;2022-10-20T15:40:12;98829.84;;;18.74;100.00
9307;BME280;4691;47.612;7.610;2022-10-20T15:42:37;98863.91;;;18.60;100.00
9307;BME280;4691;47.612;7.610;2022-10-20T15:45:13;98910.59;;;18.62;100.00
9307;BME280;4691;47.612;7.610;2022-10-20T15:47:39;98940.72;;;18.59;100.00
9307;BME280;4691;47.612;7.610;2022-10-20T15:50:05;98879.47;;;18.58;100.00